createdAt,value
2018-08-20T00:00:17.156Z,76.56
2018-08-20T00:05:25.971Z,76.99
2018-08-20T00:10:34.993Z,76.30
2018-08-20T00:15:43.863Z,77.78
2018-08-20T00:20:52.987Z,77.82
2018-08-20T00:26:02.039Z,77.78
2018-08-20T00:31:11.229Z,77.92
2018-08-20T00:36:20.198Z,77.77
2018-08-20T00:41:29.188Z,78.15
2018-08-20T00:46:38.455Z,77.65
2018-08-20T00:51:47.723Z,77.89
2018-08-20T00:56:56.440Z,76.30
2018-08-20T01:02:05.840Z,75.11
2018-08-20T01:07:14.991Z,75.44
2018-08-20T01:12:24.270Z,73.62
2018-08-20T01:17:33.323Z,71.78
2018-08-20T01:22:42.167Z,70.84
2018-08-20T01:27:51.156Z,71.07
2018-08-20T01:33:00.964Z,72.22
2018-08-20T01:38:09.912Z,73.36
2018-08-20T01:43:19.083Z,73.84
2018-08-20T01:48:27.805Z,75.42
2018-08-20T01:53:37.112Z,75.41
2018-08-20T01:58:46.268Z,75.88
2018-08-20T02:03:55.175Z,77.13
2018-08-20T02:09:05.549Z,77.16
2018-08-20T02:14:15.044Z,77.03
2018-08-20T02:19:23.835Z,77.60
2018-08-20T02:24:33.336Z,77.88
2018-08-20T02:29:42.147Z,77.10
2018-08-20T02:34:51.412Z,77.41
2018-08-20T02:40:00.467Z,77.38
2018-08-20T02:45:11.616Z,77.36
2018-08-20T02:50:21.274Z,78.49
2018-08-20T02:55:30.428Z,77.63
2018-08-20T03:00:39.273Z,79.18
2018-08-20T03:05:48.714Z,78.36
2018-08-20T03:10:58.276Z,78.71
2018-08-20T03:16:08.494Z,78.77
2018-08-20T03:21:17.001Z,79.16
2018-08-20T03:26:26.638Z,80.68
2018-08-20T03:31:35.456Z,80.82
2018-08-20T03:36:44.267Z,80.50
2018-08-20T03:41:53.245Z,81.10
2018-08-20T03:47:02.580Z,82.02
2018-08-20T03:52:11.422Z,82.08
2018-08-20T03:57:20.847Z,81.71
2018-08-20T04:02:29.933Z,81.66
2018-08-20T04:07:39.056Z,81.41
2018-08-20T04:12:48.532Z,80.54
2018-08-20T04:17:59.447Z,80.69
2018-08-20T04:23:09.025Z,79.62
2018-08-20T04:28:17.829Z,79.86
2018-08-20T04:33:27.393Z,79.37
2018-08-20T04:38:36.254Z,78.74
2018-08-20T04:43:45.056Z,77.64
2018-08-20T04:48:54.002Z,76.39
2018-08-20T04:54:02.733Z,74.99
2018-08-20T04:59:11.727Z,73.82
2018-08-20T05:04:20.567Z,71.43
2018-08-20T05:09:29.755Z,71.00
2018-08-20T05:14:38.791Z,57.52
2018-08-20T05:19:47.978Z,47.13
2018-08-20T05:24:57.085Z,40.79
2018-08-20T05:30:06.803Z,38.07
2018-08-20T05:35:15.892Z,40.93
2018-08-20T05:40:25.602Z,45.67
2018-08-20T05:45:36.245Z,39.65
2018-08-20T05:50:45.830Z,33.15
2018-08-20T05:55:55.418Z,32.13
2018-08-20T06:01:05.014Z,38.85
2018-08-20T06:06:14.477Z,33.42
2018-08-20T06:11:23.391Z,37.98
2018-08-20T06:16:33.204Z,42.45
2018-08-20T06:21:42.692Z,44.17
2018-08-20T06:26:51.449Z,46.52
2018-08-20T06:32:01.492Z,48.73
2018-08-20T06:37:10.565Z,48.57
2018-08-20T06:42:19.206Z,47.86
2018-08-20T06:47:28.418Z,47.13
2018-08-20T06:52:39.128Z,46.54
2018-08-20T06:57:48.582Z,45.25
2018-08-20T07:02:57.946Z,46.09
2018-08-20T07:08:07.341Z,46.02
2018-08-20T07:13:29.775Z,44.51
2018-08-20T07:18:38.620Z,44.09
2018-08-20T07:23:48.044Z,43.89
2018-08-20T07:28:56.773Z,42.93
2018-08-20T07:34:05.971Z,44.15
2018-08-20T07:39:14.991Z,43.72
2018-08-20T07:44:24.278Z,45.84
2018-08-20T07:49:33.853Z,48.69
2018-08-20T07:54:42.895Z,50.28
2018-08-20T07:59:51.975Z,50.82
2018-08-20T08:05:00.822Z,55.55
2018-08-20T08:10:11.795Z,53.41
2018-08-20T08:15:21.154Z,53.67
2018-08-20T08:20:30.679Z,52.05
2018-08-20T08:25:39.809Z,52.02
2018-08-20T08:30:48.902Z,51.23
2018-08-20T08:35:58.819Z,51.81
2018-08-20T08:41:08.271Z,50.39
2018-08-20T08:46:17.307Z,51.96
2018-08-20T08:51:26.597Z,51.81
2018-08-20T08:56:35.787Z,50.26
2018-08-20T09:01:45.283Z,48.96
2018-08-20T09:06:54.087Z,49.18
2018-08-20T09:12:03.824Z,47.02
2018-08-20T09:17:13.320Z,43.77
2018-08-20T09:22:22.620Z,42.40
2018-08-20T09:27:31.461Z,42.82
2018-08-20T09:32:40.555Z,44.08
2018-08-20T09:37:49.671Z,43.36
2018-08-20T09:42:59.007Z,44.74
2018-08-20T09:48:08.009Z,45.41
2018-08-20T09:53:17.249Z,45.00
2018-08-20T09:58:26.556Z,46.10
2018-08-20T10:03:36.278Z,46.74
2018-08-20T10:08:45.970Z,46.20
2018-08-20T10:13:55.248Z,46.05
2018-08-20T10:19:03.975Z,47.29
2018-08-20T10:24:13.488Z,48.72
2018-08-20T10:29:22.656Z,49.46
2018-08-20T10:34:32.079Z,48.72
2018-08-20T10:39:41.338Z,45.25
2018-08-20T10:44:50.190Z,44.31
2018-08-20T10:49:59.579Z,43.41
2018-08-20T10:55:08.916Z,42.87
2018-08-20T11:00:17.989Z,44.00
2018-08-20T11:05:27.525Z,45.31
2018-08-20T11:10:36.600Z,44.15
2018-08-20T11:15:45.786Z,45.83
2018-08-20T11:20:54.642Z,45.86
2018-08-20T11:26:04.366Z,48.71
2018-08-20T11:31:13.973Z,49.58
2018-08-20T11:36:23.466Z,51.08
2018-08-20T11:41:32.811Z,50.47
2018-08-20T11:46:42.359Z,51.03
2018-08-20T11:51:52.156Z,50.55
2018-08-20T11:57:02.026Z,49.62
2018-08-20T12:02:11.076Z,50.40
2018-08-20T12:07:20.396Z,49.00
2018-08-20T12:12:30.365Z,46.87
2018-08-20T12:17:39.546Z,45.44
2018-08-20T12:22:48.386Z,46.34
2018-08-20T12:27:58.072Z,47.16
2018-08-20T12:33:07.704Z,50.00
2018-08-20T12:38:16.876Z,50.13
2018-08-20T12:43:26.582Z,50.49
2018-08-20T12:48:35.788Z,48.47
2018-08-20T12:53:44.830Z,48.33
2018-08-20T12:58:54.121Z,48.15
2018-08-20T13:04:03.629Z,47.36
2018-08-20T13:09:12.933Z,48.64
2018-08-20T13:14:22.132Z,50.31
2018-08-20T13:19:31.147Z,49.79
2018-08-20T13:24:40.308Z,51.64
2018-08-20T13:29:49.660Z,51.32
2018-08-20T13:34:58.914Z,51.89
2018-08-20T13:40:07.847Z,49.75
2018-08-20T13:45:16.764Z,49.59
2018-08-20T13:50:28.530Z,50.52
2018-08-20T13:55:37.865Z,52.41
2018-08-20T14:00:47.009Z,52.92
2018-08-20T14:05:56.075Z,54.37
2018-08-20T14:11:05.299Z,52.47
2018-08-20T14:16:14.230Z,49.86
2018-08-20T14:21:24.100Z,48.88
2018-08-20T14:26:33.337Z,48.68
2018-08-20T14:31:42.305Z,50.17
2018-08-20T14:36:51.726Z,49.07
2018-08-20T14:42:00.869Z,49.55
2018-08-20T14:47:10.094Z,48.59
2018-08-20T14:52:19.291Z,48.80
2018-08-20T14:57:28.267Z,49.15
2018-08-20T15:02:37.138Z,49.92
2018-08-20T15:07:47.072Z,52.88
2018-08-20T15:13:00.063Z,52.11
2018-08-20T15:18:09.157Z,50.95
2018-08-20T15:23:17.983Z,51.04
2018-08-20T15:28:26.965Z,51.78
2018-08-20T15:33:35.862Z,54.87
2018-08-20T15:38:51.611Z,54.58
2018-08-20T15:44:00.945Z,56.15
2018-08-20T15:49:12.259Z,55.24
2018-08-20T15:54:21.323Z,56.00
2018-08-20T15:59:30.456Z,54.68
2018-08-20T16:04:40.010Z,54.11
2018-08-20T16:09:49.215Z,53.98
2018-08-20T16:14:58.399Z,54.09
2018-08-20T16:20:08.077Z,55.04
2018-08-20T16:25:17.695Z,54.33
2018-08-20T16:30:27.038Z,55.90
2018-08-20T16:35:36.141Z,56.80
2018-08-20T16:40:45.231Z,56.59
2018-08-20T16:45:54.294Z,56.77
2018-08-20T16:51:03.276Z,58.15
2018-08-20T16:56:12.185Z,59.11
2018-08-20T17:01:21.377Z,57.51
2018-08-20T17:06:41.789Z,59.48
2018-08-20T17:11:51.037Z,59.70
2018-08-20T17:17:00.378Z,60.22
2018-08-20T17:22:09.167Z,59.96
2018-08-20T17:27:18.155Z,60.07
2018-08-20T17:32:27.013Z,60.86
2018-08-20T17:37:36.394Z,61.14
2018-08-20T17:42:45.630Z,60.98
2018-08-20T17:47:54.975Z,61.40
2018-08-20T17:53:04.186Z,62.03
2018-08-20T17:58:14.598Z,62.12
2018-08-20T18:03:23.934Z,62.25
2018-08-20T18:08:32.528Z,63.54
2018-08-20T18:13:42.571Z,63.65
2018-08-20T18:18:52.132Z,63.85
2018-08-20T18:24:01.190Z,63.25
2018-08-20T18:29:10.618Z,64.31
2018-08-20T18:34:19.499Z,64.49
2018-08-20T18:39:29.075Z,64.80
2018-08-20T18:44:38.545Z,64.47
2018-08-20T18:49:47.462Z,64.35
2018-08-20T18:54:57.295Z,64.49
2018-08-20T19:00:12.182Z,64.04
2018-08-20T19:05:21.398Z,64.58
2018-08-20T19:10:31.017Z,63.66
2018-08-20T19:15:41.017Z,63.88
2018-08-20T19:20:50.491Z,64.11
2018-08-20T19:25:59.586Z,64.04
2018-08-20T19:31:09.154Z,63.88
2018-08-20T19:36:18.851Z,63.97
2018-08-20T19:41:28.523Z,64.54
2018-08-20T19:46:38.083Z,64.06
2018-08-20T19:51:47.978Z,63.94
2018-08-20T19:56:57.444Z,64.29
2018-08-20T20:02:10.654Z,64.83
2018-08-20T20:07:20.089Z,64.91
2018-08-20T20:12:29.146Z,66.77
2018-08-20T20:17:38.658Z,65.45
2018-08-20T20:22:48.319Z,64.99
2018-08-20T20:27:57.484Z,64.98
2018-08-20T20:33:06.816Z,65.27
2018-08-20T20:38:16.414Z,66.00
2018-08-20T20:43:26.016Z,65.75
2018-08-20T20:48:34.755Z,66.23
2018-08-20T20:53:44.367Z,65.90
2018-08-20T20:58:53.725Z,66.56
2018-08-20T21:04:04.475Z,66.91
2018-08-20T21:09:13.960Z,67.67
2018-08-20T21:14:22.908Z,68.47
2018-08-20T21:19:34.444Z,68.29
2018-08-20T21:24:43.072Z,69.85
2018-08-20T21:29:55.162Z,69.56
2018-08-20T21:35:04.137Z,69.65
2018-08-20T21:40:13.381Z,68.52
2018-08-20T21:45:22.441Z,67.16
2018-08-20T21:50:31.921Z,66.33
2018-08-20T21:55:41.107Z,66.79
2018-08-20T22:00:50.602Z,65.88
2018-08-20T22:05:59.327Z,66.95
2018-08-20T22:11:08.809Z,65.91
2018-08-20T22:16:18.346Z,65.13
2018-08-20T22:21:27.280Z,64.61
2018-08-20T22:26:39.655Z,64.82
2018-08-20T22:31:48.947Z,63.94
2018-08-20T22:36:58.116Z,65.27
2018-08-20T22:42:07.481Z,64.55
2018-08-20T22:47:16.410Z,64.35
2018-08-20T22:52:25.543Z,64.10
2018-08-20T22:57:34.745Z,64.15
2018-08-20T23:02:43.833Z,64.79
2018-08-20T23:07:53.826Z,65.73
2018-08-20T23:13:02.569Z,66.12
2018-08-20T23:18:12.231Z,67.37
2018-08-20T23:23:21.555Z,67.90
2018-08-20T23:28:30.387Z,69.42
2018-08-20T23:33:39.866Z,69.76
2018-08-20T23:38:48.825Z,71.35
2018-08-20T23:43:57.921Z,70.62
2018-08-20T23:49:06.830Z,69.19
2018-08-20T23:54:16.292Z,67.86
2018-08-20T23:59:25.585Z,67.63
